sensor_id;sensor_type;location;lat;lon;timestamp;temperature;humidity
69901;DHT22;57183;50.930;5.406;2023-09-19T00:00:43;15.80;99.90
69901;DHT22;57183;50.930;5.406;2023-09-19T00:03:10;15.90;99.90
69901;DHT22;57183;50.930;5.406;2023-09-19T00:05:38;15.80;99.90
69901;DHT22;57183;50.930;5.406;2023-09-19T00:08:04;15.80;99.90
69901;DHT22;57183;50.930;5.406;2023-09-19T00:10:31;15.90;99.90
69901;DHT22;57183;50.930;5.406;2023-09-19T00:12:57;15.80;99.90
69901;DHT22;57183;50.930;5.406;2023-09-19T00:15:26;15.80;99.90
69901;DHT22;57183;50.930;5.406;2023-09-19T00:17:54;15.70;99.90
69901;DHT22;57183;50.930;5.406;2023-09-19T00:20:20;15.70;99.90
69901;DHT22;57183;50.930;5.406;2023-09-19T00:22:51;15.70;99.90
69901;DHT22;57183;50.930;5.406;2023-09-19T00:25:17;15.70;99.90
69901;DHT22;57183;50.930;5.406;2023-09-19T00:27:43;15.70;99.90
69901;DHT22;57183;50.930;5.406;2023-09-19T00:30:12;15.70;99.90
69901;DHT22;57183;50.930;5.406;2023-09-19T00:32:50;15.80;99.90
69901;DHT22;57183;50.930;5.406;2023-09-19T00:35:20;15.80;99.90
69901;DHT22;57183;50.930;5.406;2023-09-19T00:37:49;15.80;99.90
69901;DHT22;57183;50.930;5.406;2023-09-19T00:40:14;15.80;99.90
69901;DHT22;57183;50.930;5.406;2023-09-19T00:42:44;15.80;99.90
69901;DHT22;57183;50.930;5.406;2023-09-19T00:45:11;15.80;99.90
69901;DHT22;57183;50.930;5.406;2023-09-19T00:47:43;15.80;99.90
69901;DHT22;57183;50.930;5.406;2023-09-19T00:50:10;15.80;99.90
69901;DHT22;57183;50.930;5.406;2023-09-19T00:52:37;15.90;99.90
69901;DHT22;57183;50.930;5.406;2023-09-19T00:55:07;15.90;99.90
69901;DHT22;57183;50.930;5.406;2023-09-19T00:57:34;15.90;99.90
69901;DHT22;57183;50.930;5.406;2023-09-19T01:00:01;15.80;99.90
69901;DHT22;57183;50.930;5.406;2023-09-19T01:02:37;15.80;99.90
69901;DHT22;57183;50.930;5.406;2023-09-19T01:05:03;15.80;99.90
69901;DHT22;57183;50.930;5.406;2023-09-19T01:07:32;15.80;99.90
69901;DHT22;57183;50.930;5.406;2023-09-19T01:10:03;15.80;99.90
69901;DHT22;57183;50.930;5.406;2023-09-19T01:20:45;15.70;99.90
69901;DHT22;57183;50.930;5.406;2023-09-19T01:23:20;15.70;99.90
69901;DHT22;57183;50.930;5.406;2023-09-19T01:31:47;15.60;99.90
69901;DHT22;57183;50.930;5.406;2023-09-19T01:34:14;15.60;99.90
69901;DHT22;57183;50.930;5.406;2023-09-19T01:36:40;15.50;99.90
69901;DHT22;57183;50.930;5.406;2023-09-19T01:39:11;15.50;99.90
69901;DHT22;57183;50.930;5.406;2023-09-19T01:42:12;15.60;99.90
69901;DHT22;57183;50.930;5.406;2023-09-19T01:44:57;15.60;99.90
69901;DHT22;57183;50.930;5.406;2023-09-19T01:50:11;15.50;99.90
69901;DHT22;57183;50.930;5.406;2023-09-19T01:52:46;15.60;99.90
69901;DHT22;57183;50.930;5.406;2023-09-19T01:55:13;15.60;99.90
69901;DHT22;57183;50.930;5.406;2023-09-19T01:57:49;15.60;99.90
69901;DHT22;57183;50.930;5.406;2023-09-19T02:00:19;15.50;99.90
69901;DHT22;57183;50.930;5.406;2023-09-19T02:02:47;15.50;99.90
69901;DHT22;57183;50.930;5.406;2023-09-19T02:05:13;15.40;99.90
69901;DHT22;57183;50.930;5.406;2023-09-19T02:07:39;15.50;99.90
69901;DHT22;57183;50.930;5.406;2023-09-19T02:10:06;15.50;99.90
69901;DHT22;57183;50.930;5.406;2023-09-19T02:12:32;15.60;99.90
69901;DHT22;57183;50.930;5.406;2023-09-19T02:14:58;15.60;99.90
69901;DHT22;57183;50.930;5.406;2023-09-19T02:17:25;15.60;99.90
69901;DHT22;57183;50.930;5.406;2023-09-19T02:19:54;15.50;99.90
69901;DHT22;57183;50.930;5.406;2023-09-19T02:22:23;15.40;99.90
69901;DHT22;57183;50.930;5.406;2023-09-19T02:24:50;15.50;99.90
69901;DHT22;57183;50.930;5.406;2023-09-19T02:27:16;15.50;99.90
69901;DHT22;57183;50.930;5.406;2023-09-19T02:29:43;15.60;99.90
69901;DHT22;57183;50.930;5.406;2023-09-19T02:32:09;15.60;99.90
69901;DHT22;57183;50.930;5.406;2023-09-19T02:34:37;15.60;99.90
69901;DHT22;57183;50.930;5.406;2023-09-19T02:37:07;15.60;99.90
69901;DHT22;57183;50.930;5.406;2023-09-19T02:39:36;15.60;99.90
69901;DHT22;57183;50.930;5.406;2023-09-19T02:42:02;15.50;99.90
69901;DHT22;57183;50.930;5.406;2023-09-19T02:44:29;15.50;99.90
69901;DHT22;57183;50.930;5.406;2023-09-19T02:46:55;15.40;99.90
69901;DHT22;57183;50.930;5.406;2023-09-19T02:49:22;15.40;99.90
69901;DHT22;57183;50.930;5.406;2023-09-19T02:51:48;15.30;99.90
69901;DHT22;57183;50.930;5.406;2023-09-19T02:54:14;15.30;99.90
69901;DHT22;57183;50.930;5.406;2023-09-19T02:56:41;15.40;99.90
69901;DHT22;57183;50.930;5.406;2023-09-19T02:59:07;15.40;99.90
69901;DHT22;57183;50.930;5.406;2023-09-19T03:01:35;15.40;99.90
69901;DHT22;57183;50.930;5.406;2023-09-19T03:04:02;15.40;99.90
69901;DHT22;57183;50.930;5.406;2023-09-19T03:06:28;15.40;99.90
69901;DHT22;57183;50.930;5.406;2023-09-19T03:08:56;15.30;99.90
69901;DHT22;57183;50.930;5.406;2023-09-19T03:11:22;15.30;99.90
69901;DHT22;57183;50.930;5.406;2023-09-19T03:13:54;15.30;99.90
69901;DHT22;57183;50.930;5.406;2023-09-19T03:16:20;15.20;99.90
69901;DHT22;57183;50.930;5.406;2023-09-19T03:18:51;15.30;99.90
69901;DHT22;57183;50.930;5.406;2023-09-19T03:21:17;15.30;99.90
69901;DHT22;57183;50.930;5.406;2023-09-19T03:23:43;15.30;99.90
69901;DHT22;57183;50.930;5.406;2023-09-19T03:26:11;15.20;99.90
69901;DHT22;57183;50.930;5.406;2023-09-19T03:28:38;15.20;99.90
69901;DHT22;57183;50.930;5.406;2023-09-19T03:31:06;15.20;99.90
69901;DHT22;57183;50.930;5.406;2023-09-19T03:33:33;15.20;99.90
69901;DHT22;57183;50.930;5.406;2023-09-19T03:36:00;15.20;99.90
69901;DHT22;57183;50.930;5.406;2023-09-19T03:38:27;15.20;99.90
69901;DHT22;57183;50.930;5.406;2023-09-19T03:40:53;15.20;99.90
69901;DHT22;57183;50.930;5.406;2023-09-19T03:43:19;15.20;99.90
69901;DHT22;57183;50.930;5.406;2023-09-19T03:45:44;15.20;99.90
69901;DHT22;57183;50.930;5.406;2023-09-19T03:48:12;15.20;99.90
69901;DHT22;57183;50.930;5.406;2023-09-19T03:50:38;15.20;99.90
69901;DHT22;57183;50.930;5.406;2023-09-19T03:53:04;15.30;99.90
69901;DHT22;57183;50.930;5.406;2023-09-19T03:55:30;15.40;99.90
69901;DHT22;57183;50.930;5.406;2023-09-19T03:57:56;15.30;99.90
69901;DHT22;57183;50.930;5.406;2023-09-19T04:00:22;15.30;99.90
69901;DHT22;57183;50.930;5.406;2023-09-19T04:02:51;15.20;99.90
69901;DHT22;57183;50.930;5.406;2023-09-19T04:05:18;15.30;99.90
69901;DHT22;57183;50.930;5.406;2023-09-19T04:07:44;15.30;99.90
69901;DHT22;57183;50.930;5.406;2023-09-19T04:10:10;15.20;99.90
69901;DHT22;57183;50.930;5.406;2023-09-19T04:12:37;15.20;99.90
69901;DHT22;57183;50.930;5.406;2023-09-19T04:15:04;15.20;99.90
69901;DHT22;57183;50.930;5.406;2023-09-19T04:17:30;15.30;99.90
69901;DHT22;57183;50.930;5.406;2023-09-19T04:19:58;15.20;99.90
69901;DHT22;57183;50.930;5.406;2023-09-19T04:22:24;15.30;99.90
69901;DHT22;57183;50.930;5.406;2023-09-19T04:24:50;15.30;99.90
69901;DHT22;57183;50.930;5.406;2023-09-19T04:27:16;15.30;99.90
69901;DHT22;57183;50.930;5.406;2023-09-19T04:29:41;15.20;99.90
69901;DHT22;57183;50.930;5.406;2023-09-19T04:32:08;15.20;99.90
69901;DHT22;57183;50.930;5.406;2023-09-19T04:34:35;15.30;99.90
69901;DHT22;57183;50.930;5.406;2023-09-19T04:37:01;15.30;99.90
69901;DHT22;57183;50.930;5.406;2023-09-19T04:39:27;15.40;99.90
69901;DHT22;57183;50.930;5.406;2023-09-19T04:41:53;15.50;99.90
69901;DHT22;57183;50.930;5.406;2023-09-19T04:44:20;15.60;99.90
69901;DHT22;57183;50.930;5.406;2023-09-19T04:46:46;15.50;99.90
69901;DHT22;57183;50.930;5.406;2023-09-19T04:49:12;15.60;99.90
69901;DHT22;57183;50.930;5.406;2023-09-19T04:51:39;15.50;99.90
69901;DHT22;57183;50.930;5.406;2023-09-19T04:54:05;15.40;99.90
69901;DHT22;57183;50.930;5.406;2023-09-19T04:56:32;15.30;99.90
69901;DHT22;57183;50.930;5.406;2023-09-19T04:58:58;15.20;99.90
69901;DHT22;57183;50.930;5.406;2023-09-19T05:01:24;15.20;99.90
69901;DHT22;57183;50.930;5.406;2023-09-19T05:03:50;15.20;99.90
69901;DHT22;57183;50.930;5.406;2023-09-19T05:06:21;15.20;99.90
69901;DHT22;57183;50.930;5.406;2023-09-19T05:08:50;15.00;99.90
69901;DHT22;57183;50.930;5.406;2023-09-19T05:11:19;15.00;99.90
69901;DHT22;57183;50.930;5.406;2023-09-19T05:13:47;14.90;99.90
69901;DHT22;57183;50.930;5.406;2023-09-19T05:16:13;15.00;99.90
69901;DHT22;57183;50.930;5.406;2023-09-19T05:18:39;15.00;99.90
69901;DHT22;57183;50.930;5.406;2023-09-19T05:21:05;15.10;99.90
69901;DHT22;57183;50.930;5.406;2023-09-19T05:23:30;15.00;99.90
69901;DHT22;57183;50.930;5.406;2023-09-19T05:25:56;15.00;99.90
69901;DHT22;57183;50.930;5.406;2023-09-19T05:28:25;14.90;99.90
69901;DHT22;57183;50.930;5.406;2023-09-19T05:30:51;15.00;99.90
69901;DHT22;57183;50.930;5.406;2023-09-19T05:33:19;14.90;99.90
69901;DHT22;57183;50.930;5.406;2023-09-19T05:35:45;14.80;99.90
69901;DHT22;57183;50.930;5.406;2023-09-19T05:38:12;14.80;99.90
69901;DHT22;57183;50.930;5.406;2023-09-19T05:40:42;14.80;99.90
69901;DHT22;57183;50.930;5.406;2023-09-19T05:43:08;14.80;99.90
69901;DHT22;57183;50.930;5.406;2023-09-19T05:45:34;14.80;99.90
69901;DHT22;57183;50.930;5.406;2023-09-19T05:48:09;14.80;99.90
69901;DHT22;57183;50.930;5.406;2023-09-19T05:50:35;14.80;99.90
69901;DHT22;57183;50.930;5.406;2023-09-19T05:53:01;14.80;99.90
69901;DHT22;57183;50.930;5.406;2023-09-19T05:55:27;14.80;99.90
69901;DHT22;57183;50.930;5.406;2023-09-19T05:57:54;14.80;99.90
69901;DHT22;57183;50.930;5.406;2023-09-19T06:00:22;14.80;99.90
69901;DHT22;57183;50.930;5.406;2023-09-19T06:02:52;14.90;99.90
69901;DHT22;57183;50.930;5.406;2023-09-19T06:05:18;14.90;99.90
69901;DHT22;57183;50.930;5.406;2023-09-19T06:07:44;15.00;99.90
69901;DHT22;57183;50.930;5.406;2023-09-19T06:10:10;15.10;99.90
69901;DHT22;57183;50.930;5.406;2023-09-19T06:12:39;15.10;99.90
69901;DHT22;57183;50.930;5.406;2023-09-19T06:15:05;15.20;99.90
69901;DHT22;57183;50.930;5.406;2023-09-19T06:17:34;15.10;99.90
69901;DHT22;57183;50.930;5.406;2023-09-19T06:20:05;15.10;99.90
69901;DHT22;57183;50.930;5.406;2023-09-19T06:22:36;15.10;99.90
69901;DHT22;57183;50.930;5.406;2023-09-19T06:25:02;15.00;99.90
69901;DHT22;57183;50.930;5.406;2023-09-19T06:27:28;15.10;99.90
69901;DHT22;57183;50.930;5.406;2023-09-19T06:29:54;15.20;99.90
69901;DHT22;57183;50.930;5.406;2023-09-19T06:32:27;15.10;99.90
69901;DHT22;57183;50.930;5.406;2023-09-19T06:34:52;15.20;99.90
69901;DHT22;57183;50.930;5.406;2023-09-19T06:37:20;15.30;99.90
69901;DHT22;57183;50.930;5.406;2023-09-19T06:39:46;15.20;99.90
69901;DHT22;57183;50.930;5.406;2023-09-19T06:42:15;15.30;99.90
69901;DHT22;57183;50.930;5.406;2023-09-19T06:44:42;15.30;99.90
69901;DHT22;57183;50.930;5.406;2023-09-19T06:47:08;15.30;99.90
69901;DHT22;57183;50.930;5.406;2023-09-19T06:49:35;15.40;99.90
69901;DHT22;57183;50.930;5.406;2023-09-19T06:52:01;15.40;99.90
69901;DHT22;57183;50.930;5.406;2023-09-19T06:54:28;15.50;99.90
69901;DHT22;57183;50.930;5.406;2023-09-19T06:56:56;15.60;99.90
69901;DHT22;57183;50.930;5.406;2023-09-19T06:59:24;15.60;99.90
69901;DHT22;57183;50.930;5.406;2023-09-19T07:01:50;15.80;99.90
69901;DHT22;57183;50.930;5.406;2023-09-19T07:04:16;15.70;99.90
69901;DHT22;57183;50.930;5.406;2023-09-19T07:06:49;15.70;99.90
69901;DHT22;57183;50.930;5.406;2023-09-19T07:09:15;15.80;99.90
69901;DHT22;57183;50.930;5.406;2023-09-19T07:11:41;15.70;99.90
69901;DHT22;57183;50.930;5.406;2023-09-19T07:14:08;15.90;99.90
69901;DHT22;57183;50.930;5.406;2023-09-19T07:16:37;15.90;99.90
69901;DHT22;57183;50.930;5.406;2023-09-19T07:19:04;15.90;99.90
69901;DHT22;57183;50.930;5.406;2023-09-19T07:21:30;15.90;99.90
69901;DHT22;57183;50.930;5.406;2023-09-19T07:23:56;16.00;99.90
69901;DHT22;57183;50.930;5.406;2023-09-19T07:26:21;16.10;99.90
69901;DHT22;57183;50.930;5.406;2023-09-19T07:28:47;16.20;99.90
69901;DHT22;57183;50.930;5.406;2023-09-19T07:31:13;16.20;99.90
69901;DHT22;57183;50.930;5.406;2023-09-19T07:33:39;16.30;99.90
69901;DHT22;57183;50.930;5.406;2023-09-19T07:36:05;16.30;99.90
69901;DHT22;57183;50.930;5.406;2023-09-19T07:38:31;16.40;99.90
69901;DHT22;57183;50.930;5.406;2023-09-19T07:41:01;16.30;99.90
69901;DHT22;57183;50.930;5.406;2023-09-19T07:43:27;16.40;99.90
69901;DHT22;57183;50.930;5.406;2023-09-19T07:45:53;16.50;99.90
69901;DHT22;57183;50.930;5.406;2023-09-19T07:48:19;16.60;99.90
69901;DHT22;57183;50.930;5.406;2023-09-19T07:50:44;16.60;99.90
69901;DHT22;57183;50.930;5.406;2023-09-19T07:53:11;16.50;99.90
69901;DHT22;57183;50.930;5.406;2023-09-19T07:55:39;16.50;99.90
69901;DHT22;57183;50.930;5.406;2023-09-19T07:58:07;16.70;99.90
69901;DHT22;57183;50.930;5.406;2023-09-19T08:00:32;16.70;99.90
69901;DHT22;57183;50.930;5.406;2023-09-19T08:03:00;16.70;99.90
69901;DHT22;57183;50.930;5.406;2023-09-19T08:05:26;16.70;99.90
69901;DHT22;57183;50.930;5.406;2023-09-19T08:07:52;16.60;99.90
69901;DHT22;57183;50.930;5.406;2023-09-19T08:10:19;16.70;99.90
69901;DHT22;57183;50.930;5.406;2023-09-19T08:12:47;16.70;99.90
69901;DHT22;57183;50.930;5.406;2023-09-19T08:15:18;16.80;99.90
69901;DHT22;57183;50.930;5.406;2023-09-19T08:17:49;17.00;99.90
69901;DHT22;57183;50.930;5.406;2023-09-19T08:20:16;17.10;99.90
69901;DHT22;57183;50.930;5.406;2023-09-19T08:22:52;16.90;99.90
69901;DHT22;57183;50.930;5.406;2023-09-19T08:25:20;16.90;99.90
69901;DHT22;57183;50.930;5.406;2023-09-19T08:27:48;17.00;99.90
69901;DHT22;57183;50.930;5.406;2023-09-19T08:30:16;17.10;99.90
69901;DHT22;57183;50.930;5.406;2023-09-19T08:32:42;17.00;99.90
69901;DHT22;57183;50.930;5.406;2023-09-19T08:35:09;16.90;99.90
69901;DHT22;57183;50.930;5.406;2023-09-19T08:37:35;17.00;99.90
69901;DHT22;57183;50.930;5.406;2023-09-19T08:40:00;17.10;99.90
69901;DHT22;57183;50.930;5.406;2023-09-19T08:42:26;17.20;99.90
69901;DHT22;57183;50.930;5.406;2023-09-19T08:44:52;17.30;99.90
69901;DHT22;57183;50.930;5.406;2023-09-19T08:47:33;17.40;99.90
69901;DHT22;57183;50.930;5.406;2023-09-19T08:50:19;17.30;99.90
69901;DHT22;57183;50.930;5.406;2023-09-19T08:52:46;17.30;99.90
69901;DHT22;57183;50.930;5.406;2023-09-19T08:55:16;17.40;99.90
69901;DHT22;57183;50.930;5.406;2023-09-19T08:57:51;17.40;99.90
69901;DHT22;57183;50.930;5.406;2023-09-19T09:00:18;17.40;99.90
69901;DHT22;57183;50.930;5.406;2023-09-19T09:02:47;17.50;99.90
69901;DHT22;57183;50.930;5.406;2023-09-19T09:05:13;17.50;99.90
69901;DHT22;57183;50.930;5.406;2023-09-19T09:07:41;17.50;99.90
69901;DHT22;57183;50.930;5.406;2023-09-19T09:10:07;17.50;99.90
69901;DHT22;57183;50.930;5.406;2023-09-19T09:12:35;17.60;99.90
69901;DHT22;57183;50.930;5.406;2023-09-19T09:15:07;17.80;99.90
69901;DHT22;57183;50.930;5.406;2023-09-19T09:17:34;17.90;99.90
69901;DHT22;57183;50.930;5.406;2023-09-19T09:20:00;17.90;99.90
69901;DHT22;57183;50.930;5.406;2023-09-19T09:22:25;17.90;99.90
69901;DHT22;57183;50.930;5.406;2023-09-19T09:24:59;17.90;99.90
69901;DHT22;57183;50.930;5.406;2023-09-19T09:27:27;17.90;99.90
69901;DHT22;57183;50.930;5.406;2023-09-19T09:29:53;18.10;99.90
69901;DHT22;57183;50.930;5.406;2023-09-19T09:32:28;18.10;99.90
69901;DHT22;57183;50.930;5.406;2023-09-19T09:34:56;18.30;99.90
69901;DHT22;57183;50.930;5.406;2023-09-19T09:37:23;18.20;99.90
69901;DHT22;57183;50.930;5.406;2023-09-19T09:40:00;18.30;99.90
69901;DHT22;57183;50.930;5.406;2023-09-19T09:42:45;18.30;99.90
69901;DHT22;57183;50.930;5.406;2023-09-19T09:45:24;18.20;99.90
69901;DHT22;57183;50.930;5.406;2023-09-19T09:47:59;18.20;99.90
69901;DHT22;57183;50.930;5.406;2023-09-19T09:50:32;18.50;99.90
69901;DHT22;57183;50.930;5.406;2023-09-19T09:53:19;18.60;99.90
69901;DHT22;57183;50.930;5.406;2023-09-19T09:56:04;18.80;99.90
69901;DHT22;57183;50.930;5.406;2023-09-19T09:58:52;18.70;99.90
69901;DHT22;57183;50.930;5.406;2023-09-19T10:01:24;18.50;99.90
69901;DHT22;57183;50.930;5.406;2023-09-19T10:03:57;18.40;99.90
69901;DHT22;57183;50.930;5.406;2023-09-19T10:06:23;18.30;99.90
69901;DHT22;57183;50.930;5.406;2023-09-19T10:09:07;18.30;99.90
69901;DHT22;57183;50.930;5.406;2023-09-19T10:11:44;18.40;99.90
69901;DHT22;57183;50.930;5.406;2023-09-19T10:14:16;18.50;99.90
69901;DHT22;57183;50.930;5.406;2023-09-19T10:16:47;18.40;99.90
69901;DHT22;57183;50.930;5.406;2023-09-19T10:19:36;18.40;99.90
69901;DHT22;57183;50.930;5.406;2023-09-19T10:22:04;18.30;99.90
69901;DHT22;57183;50.930;5.406;2023-09-19T10:24:33;18.30;99.90
69901;DHT22;57183;50.930;5.406;2023-09-19T10:26:59;18.30;99.90
69901;DHT22;57183;50.930;5.406;2023-09-19T10:29:28;18.20;99.90
69901;DHT22;57183;50.930;5.406;2023-09-19T10:31:58;18.30;99.90
69901;DHT22;57183;50.930;5.406;2023-09-19T10:34:25;18.30;99.90
69901;DHT22;57183;50.930;5.406;2023-09-19T10:36:53;18.40;99.90
69901;DHT22;57183;50.930;5.406;2023-09-19T10:39:19;18.40;99.90
69901;DHT22;57183;50.930;5.406;2023-09-19T10:41:53;18.40;99.90
69901;DHT22;57183;50.930;5.406;2023-09-19T10:44:25;18.30;99.90
69901;DHT22;57183;50.930;5.406;2023-09-19T10:46:52;18.30;99.90
69901;DHT22;57183;50.930;5.406;2023-09-19T10:49:19;18.40;99.90
69901;DHT22;57183;50.930;5.406;2023-09-19T10:51:47;18.50;99.90
69901;DHT22;57183;50.930;5.406;2023-09-19T10:54:17;18.60;99.90
69901;DHT22;57183;50.930;5.406;2023-09-19T10:56:48;18.60;99.90
69901;DHT22;57183;50.930;5.406;2023-09-19T10:59:17;18.60;99.90
69901;DHT22;57183;50.930;5.406;2023-09-19T11:01:47;18.80;99.90
69901;DHT22;57183;50.930;5.406;2023-09-19T11:07:06;19.00;99.90
69901;DHT22;57183;50.930;5.406;2023-09-19T11:09:56;19.10;99.90
69901;DHT22;57183;50.930;5.406;2023-09-19T11:15:07;19.10;99.90
69901;DHT22;57183;50.930;5.406;2023-09-19T11:17:37;19.10;99.90
69901;DHT22;57183;50.930;5.406;2023-09-19T11:30:47;19.30;99.90
69901;DHT22;57183;50.930;5.406;2023-09-19T11:33:30;19.60;99.90
69901;DHT22;57183;50.930;5.406;2023-09-19T11:36:17;19.50;99.90
69901;DHT22;57183;50.930;5.406;2023-09-19T11:46:30;19.50;99.90
69901;DHT22;57183;50.930;5.406;2023-09-19T11:49:07;19.50;99.90
69901;DHT22;57183;50.930;5.406;2023-09-19T11:51:40;19.60;99.90
69901;DHT22;57183;50.930;5.406;2023-09-19T11:54:14;19.80;99.90
69901;DHT22;57183;50.930;5.406;2023-09-19T11:56:43;20.00;99.90
69901;DHT22;57183;50.930;5.406;2023-09-19T11:59:10;20.20;99.90
69901;DHT22;57183;50.930;5.406;2023-09-19T12:01:38;20.20;99.90
69901;DHT22;57183;50.930;5.406;2023-09-19T12:04:08;20.00;99.90
69901;DHT22;57183;50.930;5.406;2023-09-19T12:06:33;20.00;99.90
69901;DHT22;57183;50.930;5.406;2023-09-19T12:09:00;19.80;99.90
69901;DHT22;57183;50.930;5.406;2023-09-19T12:11:31;19.80;99.90
69901;DHT22;57183;50.930;5.406;2023-09-19T12:14:01;20.00;99.90
69901;DHT22;57183;50.930;5.406;2023-09-19T12:16:27;20.10;99.90
69901;DHT22;57183;50.930;5.406;2023-09-19T12:18:57;20.20;99.90
69901;DHT22;57183;50.930;5.406;2023-09-19T12:21:31;20.20;99.90
69901;DHT22;57183;50.930;5.406;2023-09-19T12:24:04;20.10;99.90
69901;DHT22;57183;50.930;5.406;2023-09-19T12:26:38;20.30;99.90
69901;DHT22;57183;50.930;5.406;2023-09-19T12:29:17;20.40;99.90
69901;DHT22;57183;50.930;5.406;2023-09-19T12:31:52;20.40;99.90
69901;DHT22;57183;50.930;5.406;2023-09-19T12:34:26;20.40;99.90
69901;DHT22;57183;50.930;5.406;2023-09-19T12:37:25;20.50;99.90
69901;DHT22;57183;50.930;5.406;2023-09-19T12:40:04;20.50;99.90
69901;DHT22;57183;50.930;5.406;2023-09-19T12:42:41;20.40;99.90
69901;DHT22;57183;50.930;5.406;2023-09-19T12:45:08;20.40;99.90
69901;DHT22;57183;50.930;5.406;2023-09-19T12:47:39;20.50;99.90
69901;DHT22;57183;50.930;5.406;2023-09-19T12:50:15;20.60;99.90
69901;DHT22;57183;50.930;5.406;2023-09-19T12:52:54;20.50;99.90
69901;DHT22;57183;50.930;5.406;2023-09-19T12:55:31;20.40;99.90
69901;DHT22;57183;50.930;5.406;2023-09-19T13:00:42;20.30;99.90
69901;DHT22;57183;50.930;5.406;2023-09-19T13:03:26;20.10;99.90
69901;DHT22;57183;50.930;5.406;2023-09-19T13:05:54;20.00;99.90
69901;DHT22;57183;50.930;5.406;2023-09-19T13:08:30;19.90;99.90
69901;DHT22;57183;50.930;5.406;2023-09-19T13:11:05;20.00;99.90
69901;DHT22;57183;50.930;5.406;2023-09-19T13:14:12;20.00;99.90
69901;DHT22;57183;50.930;5.406;2023-09-19T13:22:00;20.10;99.90
69901;DHT22;57183;50.930;5.406;2023-09-19T13:24:26;20.00;99.90
69901;DHT22;57183;50.930;5.406;2023-09-19T13:26:53;20.10;99.90
69901;DHT22;57183;50.930;5.406;2023-09-19T13:29:20;20.10;99.90
69901;DHT22;57183;50.930;5.406;2023-09-19T13:31:50;20.10;99.90
69901;DHT22;57183;50.930;5.406;2023-09-19T13:34:16;20.10;99.90
69901;DHT22;57183;50.930;5.406;2023-09-19T13:36:43;20.20;99.90
69901;DHT22;57183;50.930;5.406;2023-09-19T13:39:09;20.30;99.90
69901;DHT22;57183;50.930;5.406;2023-09-19T13:41:35;20.50;99.90
69901;DHT22;57183;50.930;5.406;2023-09-19T13:44:04;20.60;99.90
69901;DHT22;57183;50.930;5.406;2023-09-19T13:46:30;20.70;99.90
69901;DHT22;57183;50.930;5.406;2023-09-19T13:48:59;20.70;99.90
69901;DHT22;57183;50.930;5.406;2023-09-19T13:51:28;20.50;99.90
69901;DHT22;57183;50.930;5.406;2023-09-19T13:53:55;20.50;99.90
69901;DHT22;57183;50.930;5.406;2023-09-19T13:56:21;20.50;99.90
69901;DHT22;57183;50.930;5.406;2023-09-19T13:58:47;20.60;99.90
69901;DHT22;57183;50.930;5.406;2023-09-19T14:01:12;20.90;99.90
69901;DHT22;57183;50.930;5.406;2023-09-19T14:03:39;21.00;99.90
69901;DHT22;57183;50.930;5.406;2023-09-19T14:06:05;20.90;99.90
69901;DHT22;57183;50.930;5.406;2023-09-19T14:08:31;20.60;99.90
69901;DHT22;57183;50.930;5.406;2023-09-19T14:10:58;20.40;99.90
69901;DHT22;57183;50.930;5.406;2023-09-19T14:13:24;20.20;99.90
69901;DHT22;57183;50.930;5.406;2023-09-19T14:15:51;20.10;99.90
69901;DHT22;57183;50.930;5.406;2023-09-19T14:18:16;20.00;99.90
69901;DHT22;57183;50.930;5.406;2023-09-19T14:20:44;20.00;99.90
69901;DHT22;57183;50.930;5.406;2023-09-19T14:23:10;19.90;99.90
69901;DHT22;57183;50.930;5.406;2023-09-19T14:25:35;20.00;99.90
69901;DHT22;57183;50.930;5.406;2023-09-19T14:28:02;20.00;99.90
69901;DHT22;57183;50.930;5.406;2023-09-19T14:30:28;20.00;99.90
69901;DHT22;57183;50.930;5.406;2023-09-19T14:32:53;19.90;99.90
69901;DHT22;57183;50.930;5.406;2023-09-19T14:35:19;19.70;99.90
69901;DHT22;57183;50.930;5.406;2023-09-19T14:37:45;19.70;99.90
69901;DHT22;57183;50.930;5.406;2023-09-19T14:40:11;19.70;99.90
69901;DHT22;57183;50.930;5.406;2023-09-19T14:42:39;19.80;99.90
69901;DHT22;57183;50.930;5.406;2023-09-19T14:45:06;19.90;99.90
69901;DHT22;57183;50.930;5.406;2023-09-19T14:47:33;20.00;99.90
69901;DHT22;57183;50.930;5.406;2023-09-19T14:50:03;20.00;99.90
69901;DHT22;57183;50.930;5.406;2023-09-19T14:52:33;20.20;99.90
69901;DHT22;57183;50.930;5.406;2023-09-19T14:55:00;20.20;99.90
69901;DHT22;57183;50.930;5.406;2023-09-19T14:57:27;20.20;99.90
69901;DHT22;57183;50.930;5.406;2023-09-19T14:59:53;20.20;99.90
69901;DHT22;57183;50.930;5.406;2023-09-19T15:02:18;20.30;99.90
69901;DHT22;57183;50.930;5.406;2023-09-19T15:04:44;20.30;99.90
69901;DHT22;57183;50.930;5.406;2023-09-19T15:07:13;20.30;99.90
69901;DHT22;57183;50.930;5.406;2023-09-19T15:09:41;20.30;99.90
69901;DHT22;57183;50.930;5.406;2023-09-19T15:12:06;20.30;99.90
69901;DHT22;57183;50.930;5.406;2023-09-19T15:14:32;20.30;99.90
69901;DHT22;57183;50.930;5.406;2023-09-19T15:16:58;20.20;99.90
69901;DHT22;57183;50.930;5.406;2023-09-19T15:19:24;20.20;99.90
69901;DHT22;57183;50.930;5.406;2023-09-19T15:21:49;20.40;99.90
69901;DHT22;57183;50.930;5.406;2023-09-19T15:24:15;20.30;99.90
69901;DHT22;57183;50.930;5.406;2023-09-19T15:26:43;20.30;99.90
69901;DHT22;57183;50.930;5.406;2023-09-19T15:29:10;20.20;99.90
69901;DHT22;57183;50.930;5.406;2023-09-19T15:31:36;20.20;99.90
69901;DHT22;57183;50.930;5.406;2023-09-19T15:34:02;20.30;99.90
69901;DHT22;57183;50.930;5.406;2023-09-19T15:36:28;20.40;99.90
69901;DHT22;57183;50.930;5.406;2023-09-19T15:38:59;20.40;99.90
69901;DHT22;57183;50.930;5.406;2023-09-19T15:41:26;20.40;99.90
69901;DHT22;57183;50.930;5.406;2023-09-19T15:43:53;20.50;99.90
69901;DHT22;57183;50.930;5.406;2023-09-19T15:46:19;20.50;99.90
69901;DHT22;57183;50.930;5.406;2023-09-19T15:48:45;20.90;99.90
69901;DHT22;57183;50.930;5.406;2023-09-19T15:51:12;20.90;99.90
69901;DHT22;57183;50.930;5.406;2023-09-19T15:53:46;20.60;99.90
69901;DHT22;57183;50.930;5.406;2023-09-19T15:56:13;20.20;99.90
69901;DHT22;57183;50.930;5.406;2023-09-19T15:58:40;19.90;99.90
69901;DHT22;57183;50.930;5.406;2023-09-19T16:01:07;19.80;99.90
69901;DHT22;57183;50.930;5.406;2023-09-19T16:03:42;19.70;99.90
69901;DHT22;57183;50.930;5.406;2023-09-19T16:06:16;19.60;99.90
69901;DHT22;57183;50.930;5.406;2023-09-19T16:08:44;19.50;99.90
69901;DHT22;57183;50.930;5.406;2023-09-19T16:11:11;19.60;99.90
69901;DHT22;57183;50.930;5.406;2023-09-19T16:13:38;19.60;99.90
69901;DHT22;57183;50.930;5.406;2023-09-19T16:16:04;19.50;99.90
69901;DHT22;57183;50.930;5.406;2023-09-19T16:18:30;19.50;99.90
69901;DHT22;57183;50.930;5.406;2023-09-19T16:21:06;19.50;99.90
69901;DHT22;57183;50.930;5.406;2023-09-19T16:23:34;19.50;99.90
69901;DHT22;57183;50.930;5.406;2023-09-19T16:26:06;19.40;99.90
69901;DHT22;57183;50.930;5.406;2023-09-19T16:28:36;19.40;99.90